Diretta Meteo Olbia-Costa Smeralda, Italiadomenica 18 agosto ore 14:20

Mappa
Sereno 32 °C Sereno 24 Ore: T.min 16 T.max 32
Ponente Est Km/h 20.3 Punto di rugiada: 20 °C Umidità: 49% Visibilità: 10 Km
Il sole sorge alle: 06:33 Il sole tramonta alle: 20:17
18 Agosto 2019 14:20 tempo osservato: Sereno Sereno 32 49 1015 vento: Nord E 20.3
18 Agosto 2019 13:50 tempo osservato: Sereno Sereno 31 52 1015 vento: Nord E 20.3
18 Agosto 2019 13:20 tempo osservato: Sereno Sereno 30 58 1015 vento: Nord E 24
18 Agosto 2019 12:50 tempo osservato: Sereno Sereno 30 62 1015 vento: Nord E 22.2
18 Agosto 2019 12:20 tempo osservato: Sereno Sereno 30 62 1016 vento: Nord E/NE 22.2
18 Agosto 2019 11:50 tempo osservato: Sereno Sereno 30 62 1016 vento: Nord E/NE 22.2
18 Agosto 2019 11:20 tempo osservato: Sereno Sereno 29 66 1016 vento: Nord E/NE 20.3
18 Agosto 2019 10:50 tempo osservato: Poco Nuvoloso Poco Nuvoloso 28 69 1016 vento: Nord NE 18.5
18 Agosto 2019 10:20 tempo osservato: Sereno Sereno 27 69 1016 vento: Nord N/NE 9.3
18 Agosto 2019 09:50 tempo osservato: Poco Nuvoloso Poco Nuvoloso 27 65 1016 vento: Nord N 1.8
18 Agosto 2019 09:20 tempo osservato: Poco Nuvoloso Poco Nuvoloso 25 73 1016 vento: Nord N 3.7
18 Agosto 2019 08:50 tempo osservato: Poco Nuvoloso Poco Nuvoloso 24 69 1016 vento: Nord N 1.8
18 Agosto 2019 08:20 tempo osservato: Poco Nuvoloso Poco Nuvoloso 21 82 1016 vento: Nord N 1.8
18 Agosto 2019 07:50 tempo osservato: Poco Nuvoloso Poco Nuvoloso 18 93 1016 vento: Nord N 1.8
18 Agosto 2019 07:20 tempo osservato: Poco Nuvoloso Poco Nuvoloso 17 93 1016 vento: Nord N 1.8
18 Agosto 2019 06:50 tempo osservato: Poco Nuvoloso Poco Nuvoloso 16 93 1016 vento: Nord N 1.8
18 Agosto 2019 06:20 tempo osservato: Sereno Sereno 17 93 1016 vento: Nord N 1.8
18 Agosto 2019 05:50 tempo osservato: Sereno Sereno 17 93 1016 vento: Nord N 1.8
18 Agosto 2019 05:20 tempo osservato: Sereno Sereno 17 93 1016 vento: Nord N 1.8
18 Agosto 2019 04:50 tempo osservato: Sereno Sereno 17 93 1016 vento: Nord N 3.7
18 Agosto 2019 04:20 tempo osservato: Sereno Sereno 18 88 1016 vento: Nord N 1.8
18 Agosto 2019 03:50 tempo osservato: Sereno Sereno 18 88 1016 vento: Nord N 5.5
18 Agosto 2019 03:20 tempo osservato: Sereno Sereno 18 93 1016 vento: Nord N 5.5
18 Agosto 2019 02:20 tempo osservato: Sereno Sereno 19 88 1016 vento: Nord N 1.8
18 Agosto 2019 01:50 tempo osservato: Sereno Sereno 19 88 1016 vento: Nord N 3.7
18 Agosto 2019 01:20 tempo osservato: Sereno Sereno 20 82 1016 vento: Nord N 5.5
18 Agosto 2019 00:50 tempo osservato: Sereno Sereno 21 82 1016 vento: Nord N 1.8
18 Agosto 2019 00:20 tempo osservato: Sereno Sereno 21 82 1016 vento: Nord N 1.8
17 Agosto 2019 23:50 tempo osservato: Sereno Sereno 21 82 1016 vento: Nord N 1.8
17 Agosto 2019 23:20 tempo osservato: Sereno Sereno 22 83 1016 vento: Nord N 1.8
17 Agosto 2019 22:50 tempo osservato: Sereno Sereno 23 83 1016 vento: Nord O/SO 7.4
17 Agosto 2019 22:20 tempo osservato: Sereno Sereno 23 83 1016 vento: Nord N 3.7
17 Agosto 2019 21:50 tempo osservato: Sereno Sereno 24 83 1016 vento: Nord N 3.7
17 Agosto 2019 21:20 tempo osservato: Sereno Sereno 25 78 1016 vento: Nord N 1.8
17 Agosto 2019 20:50 tempo osservato: Sereno Sereno 26 73 1016 vento: Nord N 5.5
17 Agosto 2019 20:20 tempo osservato: Sereno Sereno 26 69 1016 vento: Nord E 7.4
17 Agosto 2019 19:50 tempo osservato: Sereno Sereno 27 61 1016 vento: Nord E 11.1
17 Agosto 2019 19:20 tempo osservato: Sereno Sereno 27 61 1016 vento: Nord E/NE 11.1
17 Agosto 2019 18:50 tempo osservato: Sereno Sereno 28 54 1016 vento: Nord E/NE 11.1
17 Agosto 2019 18:20 tempo osservato: Poco Nuvoloso Poco Nuvoloso 28 54 1016 vento: Nord E/NE 13
17 Agosto 2019 17:50 tempo osservato: Poco Nuvoloso Poco Nuvoloso 29 51 1016 vento: Nord E 13
17 Agosto 2019 17:20 tempo osservato: Poco Nuvoloso Poco Nuvoloso 29 51 1016 vento: Nord E/NE 13
17 Agosto 2019 16:50 tempo osservato: Poco Nuvoloso Poco Nuvoloso 29 54 1016 vento: Nord E/NE 13
17 Agosto 2019 16:20 tempo osservato: Poco Nuvoloso Poco Nuvoloso 29 51 1016 vento: Nord E/NE 16.7
17 Agosto 2019 15:50 tempo osservato: Poco Nuvoloso Poco Nuvoloso 30 51 1016 vento: Nord E/NE 16.7